Share

Agua Nueva, TX

Buena Vista Windmill (KTXRIOGR3) Elev 561 ft | 26.78 °N, 98.81 °W | Change Station

Current weather conditions updated 3 minutes ago

Mostly Cloudy
Mostly Cloudy
71.2 °F
Feels Like 71 °F
N
1.0
Wind Variable Wind from WNW
Gusts 6.0 mph
Sunrise 7:07 AM
Sunset 8:00 PM
Moon Waning Gibbous

Today is forecast to be nearly the same temperature as yesterday.

Pressure 30.18 in
Visibility 10.0 miles
Clouds Mostly Cloudy 1800 ft
Mostly Cloudy 2800 ft
Mostly Cloudy 3500 ft
Heat Index 71 °F
Dew Point 66 °F
Humidity 83%
Rainfall 0.00 in
Snow Depth Not available.
UV 6 out of 16
Pollen 9.70 out of 12
Air Quality Not available.
Flu Activity Local Activity
METAR KHBV 181755Z AUTO 11004KT 10SM BKN018 BKN028 BKN035 22/16 A3018 RMK AO2 T02210160

More Conditions Fewer Conditions

Pressure 30.18 in
Visibility 10.0 miles
Clouds Mostly Cloudy 1800 ft
Mostly Cloudy 2800 ft
Mostly Cloudy 3500 ft
Heat Index 71 °F
Dew Point 66 °F
Humidity 83%
Rainfall 0.00 in
Snow Depth Not available.
UV 6 out of 16
Pollen 9.70 out of 12
Air Quality Not available.
Flu Activity Local Activity
METAR KHBV 181755Z AUTO 11004KT 10SM BKN018 BKN028 BKN035 22/16 A3018 RMK AO2 T02210160

More Conditions Fewer Conditions

10-Day Weather Forecast

Almanac

Astronomy

Apr. 18, 2014 Rise Set
Actual Time 7:07 AM CDT 8:00 PM CDT
Civil Twilight 6:43 AM CDT 8:24 PM CDT
Nautical Twilight 6:15 AM CDT 8:52 PM CDT
Astronomical Twilight 5:46 AM CDT 9:21 PM CDT
Moon 11:34 PM CDT 9:42 AM CDT
Length of Visible Light 13h 40m
Length of Day
12h 52m
Tomorrow will be 1m 29s longer.
Waning Gibbous, 86% of the Moon is Illuminated
Today
Waning Gibbous
Apr 22
Last Quarter
Apr 29
New
May 6
First Quarter
May 14
Full

Today's Extremes

State Highs State Lows

Community

  • What's for Lunch?
    What's for Lunch?
  • SUNRISE THROUGH THE TREES.
    SUNRISE THROUGH THE TREES.
  • Dog Wood Blossoms
    Dog Wood Blossoms
  • Morning Light
    Morning Light
  • New Day
    New Day

WunderPhotos

Upload Photos

1,702,443 photos uploaded!

Nearby

Snow Depth

Station Depth Elevation
No new snow has been reported.

Coastal Water Temperatures

Place Temperature
No Stations Reporting

Earthquake Activity

City Distance Mag. Time & Date
No recent earthquake activity has been reported nearby.
Minimum magnitude displayed is 2.5.

Nearby Weather Stations

Station Location Temp. Heat Index Dew Point Humidity Wind Precip. Elev Updated Type
Buena Vista Windmill, Rio Grande City, TX 71.2 °F 71 °F 66 °F 83% WNW  at  1.0 mph 0.00 in / hr 561 ft 1:09 PM CDT Normal
Elizita Ranch, Hebbronville, TX 70.3 °F - 65 °F 84% SE  at  1.0 mph 0.00 in / hr 440 ft 1:11 PM CDT Normal

Show More Stations Show Fewer Stations

What do you think?

We're not finished. Please let us know what you like, what you don't like, and what you are still missing.